createdAt,value
2024-04-02T00:05:42.627Z,6.10
2024-04-02T00:18:42.632Z,4.80
2024-04-02T00:31:42.685Z,3.90
2024-04-02T00:44:42.641Z,4.00
2024-04-02T00:57:42.645Z,4.40
2024-04-02T01:10:42.663Z,3.90
2024-04-02T01:23:42.655Z,4.60
2024-04-02T01:36:42.686Z,3.60
2024-04-02T01:49:42.663Z,3.70
2024-04-02T02:02:42.672Z,2.90
2024-04-02T02:16:42.669Z,2.20
2024-04-02T02:29:42.686Z,2.60
2024-04-02T02:42:42.694Z,2.20
2024-04-02T02:55:42.687Z,1.80
2024-04-02T03:08:42.694Z,2.30
2024-04-02T03:21:42.700Z,2.00
2024-04-02T03:34:42.695Z,1.90
2024-04-02T03:47:42.724Z,1.50
2024-04-02T04:00:42.715Z,1.90
2024-04-02T04:13:42.727Z,0.90
2024-04-02T04:26:42.733Z,0.90
2024-04-02T04:39:42.728Z,1.10
2024-04-02T04:53:42.751Z,1.40
2024-04-02T05:07:42.740Z,2.30
2024-04-02T05:22:42.762Z,3.50
2024-04-02T05:36:42.770Z,2.50
2024-04-02T05:50:42.786Z,3.70
2024-04-02T06:04:42.795Z,2.50
2024-04-02T06:18:42.815Z,4.10
2024-04-02T06:32:42.857Z,1.60
2024-04-02T06:46:42.817Z,2.00
2024-04-02T07:00:42.848Z,1.40
2024-04-02T07:14:42.853Z,2.90
2024-04-02T07:28:42.873Z,2.90
2024-04-02T07:42:42.866Z,6.10
2024-04-02T07:57:42.886Z,20.10
2024-04-02T08:11:42.881Z,19.30
2024-04-02T08:26:42.882Z,9.90
2024-04-02T08:40:42.907Z,11.80
2024-04-02T08:54:42.914Z,9.50
2024-04-02T09:08:42.941Z,10.30
2024-04-02T09:22:42.950Z,10.00
2024-04-02T09:36:42.943Z,8.20
2024-04-02T09:50:42.967Z,6.70
2024-04-02T10:04:42.974Z,7.50
2024-04-02T10:18:43.735Z,7.60
2024-04-02T10:32:42.987Z,6.50
2024-04-02T10:46:42.955Z,5.30
2024-04-02T11:00:42.970Z,6.20
2024-04-02T11:14:42.977Z,5.50
2024-04-02T11:28:42.970Z,4.10
2024-04-02T11:42:42.976Z,4.50
2024-04-02T11:56:42.960Z,5.40
2024-04-02T12:10:42.994Z,4.50
2024-04-02T12:24:45.596Z,3.00
2024-04-02T12:38:42.999Z,4.00
2024-04-02T12:52:43.003Z,4.40
2024-04-02T13:06:43.014Z,3.20
2024-04-02T13:20:43.225Z,3.20
2024-04-02T13:34:43.016Z,2.60
2024-04-02T13:49:43.036Z,2.50
2024-04-02T14:03:43.036Z,3.20
2024-04-02T14:17:43.053Z,2.50
2024-04-02T14:31:43.141Z,3.40
2024-04-02T14:45:43.058Z,1.90
2024-04-02T14:59:43.079Z,2.30
2024-04-02T15:13:43.078Z,4.40
2024-04-02T15:27:43.100Z,1.60
2024-04-02T15:41:43.121Z,2.10
2024-04-02T15:55:43.108Z,3.00
2024-04-02T16:09:43.109Z,1.30
2024-04-02T16:23:43.132Z,2.20
2024-04-02T16:37:43.147Z,2.20
2024-04-02T16:51:43.172Z,1.50
2024-04-02T17:05:43.140Z,1.40
2024-04-02T17:19:43.181Z,1.10
2024-04-02T17:33:43.205Z,2.00
2024-04-02T17:47:43.147Z,2.20
2024-04-02T18:01:43.259Z,1.90
2024-04-02T18:15:43.174Z,2.00
2024-04-02T18:28:43.190Z,1.70
2024-04-02T18:41:43.190Z,2.00
2024-04-02T18:54:43.184Z,1.20
2024-04-02T19:07:43.197Z,3.00
2024-04-02T19:20:43.221Z,1.40
2024-04-02T19:33:43.223Z,1.80
2024-04-02T19:46:43.201Z,3.50
2024-04-02T19:59:43.228Z,5.50
2024-04-02T20:12:43.244Z,6.70
2024-04-02T20:25:43.243Z,6.20
2024-04-02T20:38:43.241Z,7.10
2024-04-02T20:51:43.253Z,11.70
2024-04-02T21:04:43.317Z,7.70
2024-04-02T21:17:43.242Z,8.20
2024-04-02T21:30:43.264Z,7.40
2024-04-02T21:43:43.280Z,8.00
2024-04-02T21:56:43.251Z,6.05
2024-04-02T22:09:43.270Z,5.90
2024-04-02T22:22:43.285Z,5.90
2024-04-02T22:35:43.275Z,6.80
2024-04-02T22:48:43.300Z,4.90
2024-04-02T23:01:43.411Z,4.90
2024-04-02T23:14:43.326Z,4.70
2024-04-02T23:27:43.336Z,3.60
2024-04-02T23:40:43.343Z,3.40
2024-04-02T23:53:43.332Z,3.90
